Time;durP1;ratioP1;P1;durP2;ratioP2;P2;SDS_P1;SDS_P2;PMS_P1;PMS_P2;Temp;Humidity;BMP_temperature;BMP_pressure;BME280_temperature;BME280_humidity;BME280_pressure;Samples;Min_cycle;Max_cycle;Signal;HPM_P1;HPM_P2
2021/09/25 00:00:30;;;;;;;8.00;4.65;;;;;;;;;;5068392;28;20028;-60
2021/09/25 00:02:57;;;;;;;8.85;5.03;;;;;;;;;;5087370;28;20085;-59
2021/09/25 00:05:27;;;;;;;10.32;4.97;;;;;;;;;;5087283;28;20028;-61
2021/09/25 00:07:52;;;;;;;7.60;5.03;;;;;;;;;;5087194;28;20102;-60
2021/09/25 00:10:18;;;;;;;13.25;6.13;;;;;;;;;;5087222;28;20143;-59
2021/09/25 00:12:44;;;;;;;10.48;5.80;;;;;;;;;;5086998;28;20115;-60
2021/09/25 00:15:10;;;;;;;9.48;5.97;;;;;;;;;;5087085;28;20055;-60
2021/09/25 00:17:36;;;;;;;7.85;5.30;;;;;;;;;;5090305;28;20067;-61
2021/09/25 00:20:01;;;;;;;8.27;5.13;;;;;;;;;;5091172;28;20051;-60
2021/09/25 00:22:27;;;;;;;8.20;5.30;;;;;;;;;;5090784;28;20922;-60
2021/09/25 00:24:52;;;;;;;8.95;5.10;;;;;;;;;;5091102;28;20032;-60
2021/09/25 00:27:18;;;;;;;11.52;5.22;;;;;;;;;;5091244;28;20024;-60
2021/09/25 00:29:43;;;;;;;9.60;5.20;;;;;;;;;;5091066;28;20803;-59
2021/09/25 00:32:08;;;;;;;8.73;5.15;;;;;;;;;;5090837;28;20035;-60
2021/09/25 00:34:34;;;;;;;9.60;5.43;;;;;;;;;;5090882;28;20706;-60
2021/09/25 00:36:59;;;;;;;9.25;5.65;;;;;;;;;;5090775;28;20111;-60
2021/09/25 00:39:25;;;;;;;11.60;5.47;;;;;;;;;;5090522;28;20039;-60
2021/09/25 00:41:50;;;;;;;10.90;5.72;;;;;;;;;;5090180;28;20127;-61
2021/09/25 00:44:16;;;;;;;8.18;5.75;;;;;;;;;;5090515;28;20089;-61
2021/09/25 00:46:41;;;;;;;9.10;6.25;;;;;;;;;;5072121;28;20074;-60
2021/09/25 00:49:07;;;;;;;18.70;9.00;;;;;;;;;;5072024;28;20020;-60
2021/09/25 00:51:32;;;;;;;35.38;11.20;;;;;;;;;;5071817;28;20128;-60
2021/09/25 00:53:58;;;;;;;28.45;10.35;;;;;;;;;;5072002;28;20047;-60
2021/09/25 00:56:24;;;;;;;21.48;8.98;;;;;;;;;;5090161;28;20471;-61
2021/09/25 00:58:50;;;;;;;15.70;7.43;;;;;;;;;;5090075;28;20514;-60
2021/09/25 01:01:15;;;;;;;13.52;6.68;;;;;;;;;;5090255;28;20024;-61
2021/09/25 01:03:41;;;;;;;19.13;7.85;;;;;;;;;;5090211;28;20452;-60
2021/09/25 01:06:06;;;;;;;18.55;7.82;;;;;;;;;;5090197;28;20030;-61
2021/09/25 01:08:32;;;;;;;19.52;8.45;;;;;;;;;;5090364;28;20055;-61
2021/09/25 01:10:58;;;;;;;26.10;9.07;;;;;;;;;;5089958;28;20027;-60
2021/09/25 01:13:24;;;;;;;14.52;7.20;;;;;;;;;;5089719;28;20031;-60
2021/09/25 01:15:50;;;;;;;13.30;6.53;;;;;;;;;;5089577;28;20031;-61
2021/09/25 01:18:15;;;;;;;11.05;6.55;;;;;;;;;;5089708;28;20071;-60
2021/09/25 01:20:41;;;;;;;11.95;7.05;;;;;;;;;;5089895;28;20024;-60
2021/09/25 01:23:07;;;;;;;14.80;6.65;;;;;;;;;;5090127;28;20036;-60
2021/09/25 01:25:34;;;;;;;14.70;7.15;;;;;;;;;;5089927;28;20043;-60
2021/09/25 01:28:00;;;;;;;13.57;7.22;;;;;;;;;;5089186;28;20068;-61
2021/09/25 01:30:26;;;;;;;14.98;6.75;;;;;;;;;;5089812;28;20034;-61
2021/09/25 01:32:52;;;;;;;11.00;6.25;;;;;;;;;;5089792;28;20043;-61
2021/09/25 01:35:20;;;;;;;9.40;6.18;;;;;;;;;;5071405;28;20024;-60
2021/09/25 01:37:46;;;;;;;10.20;6.05;;;;;;;;;;5089356;28;20036;-61
2021/09/25 01:40:12;;;;;;;11.30;5.90;;;;;;;;;;5089243;28;20483;-61
2021/09/25 01:42:38;;;;;;;10.35;6.10;;;;;;;;;;5089250;28;20024;-60
2021/09/25 01:45:04;;;;;;;8.63;5.32;;;;;;;;;;5089305;28;20123;-61
2021/09/25 01:47:30;;;;;;;7.45;5.20;;;;;;;;;;5089644;28;20039;-60
2021/09/25 01:49:58;;;;;;;6.47;5.35;;;;;;;;;;5089441;28;20028;-60
2021/09/25 01:52:24;;;;;;;6.72;4.60;;;;;;;;;;5089217;28;20036;-60
2021/09/25 01:54:49;;;;;;;7.53;5.07;;;;;;;;;;5089084;28;20024;-60
2021/09/25 01:57:15;;;;;;;6.47;4.57;;;;;;;;;;5082294;28;20464;-60
2021/09/25 01:59:40;;;;;;;6.57;5.00;;;;;;;;;;5051120;28;20059;-60
2021/09/25 02:02:06;;;;;;;7.35;4.90;;;;;;;;;;5051005;28;20086;-60
2021/09/25 02:04:34;;;;;;;5.57;4.50;;;;;;;;;;5068785;28;20090;-60
2021/09/25 02:06:59;;;;;;;5.13;4.57;;;;;;;;;;5068838;28;20502;-60
2021/09/25 02:09:25;;;;;;;6.43;4.63;;;;;;;;;;5068662;28;20020;-61
2021/09/25 02:11:50;;;;;;;6.40;4.28;;;;;;;;;;5050386;28;20048;-61
2021/09/25 02:14:15;;;;;;;7.13;4.65;;;;;;;;;;5068730;28;20032;-60
2021/09/25 02:16:41;;;;;;;7.18;4.00;;;;;;;;;;5068277;28;20042;-61
2021/09/25 02:19:06;;;;;;;6.72;4.40;;;;;;;;;;5049938;28;20111;-61
2021/09/25 02:21:32;;;;;;;7.00;4.30;;;;;;;;;;5068183;28;20089;-61
2021/09/25 02:23:57;;;;;;;6.28;4.15;;;;;;;;;;5068069;28;20032;-61
2021/09/25 02:26:22;;;;;;;5.85;4.50;;;;;;;;;;5067941;28;20032;-62
2021/09/25 02:28:48;;;;;;;7.88;4.45;;;;;;;;;;5068472;28;20524;-61
2021/09/25 02:31:14;;;;;;;6.13;4.20;;;;;;;;;;5068085;28;20044;-60
2021/09/25 02:33:40;;;;;;;7.00;4.70;;;;;;;;;;5067863;28;20032;-61
2021/09/25 02:36:05;;;;;;;6.88;4.88;;;;;;;;;;5050149;28;20074;-60
2021/09/25 02:38:30;;;;;;;9.25;4.63;;;;;;;;;;5049609;28;20070;-61
2021/09/25 02:40:56;;;;;;;6.20;4.85;;;;;;;;;;5066569;28;20029;-60
2021/09/25 02:43:21;;;;;;;7.75;4.57;;;;;;;;;;5067977;28;20020;-60
2021/09/25 02:45:47;;;;;;;8.88;4.95;;;;;;;;;;5049983;28;20036;-61
2021/09/25 02:48:12;;;;;;;7.05;4.47;;;;;;;;;;5067971;28;20028;-61
2021/09/25 02:50:39;;;;;;;7.22;4.72;;;;;;;;;;5067964;28;20051;-60
2021/09/25 02:53:04;;;;;;;5.40;4.60;;;;;;;;;;5067655;28;20439;-61
2021/09/25 02:55:30;;;;;;;7.70;4.78;;;;;;;;;;5067760;28;20032;-59
2021/09/25 02:57:55;;;;;;;9.55;5.03;;;;;;;;;;5048842;28;20045;-61
2021/09/25 03:00:32;;;;;;;6.70;4.63;;;;;;;;;;5067122;28;20032;-60
2021/09/25 03:02:57;;;;;;;7.47;4.38;;;;;;;;;;5069189;28;20083;-60
2021/09/25 03:05:23;;;;;;;8.13;4.80;;;;;;;;;;5067139;28;20020;-59
2021/09/25 03:07:48;;;;;;;10.55;4.80;;;;;;;;;;5067595;28;20055;-60
2021/09/25 03:10:14;;;;;;;8.15;4.85;;;;;;;;;;5067252;28;20024;-61
2021/09/25 03:12:39;;;;;;;5.50;4.47;;;;;;;;;;5067360;28;20055;-59
2021/09/25 03:15:06;;;;;;;7.47;4.78;;;;;;;;;;5049241;28;20852;-61
2021/09/25 03:17:31;;;;;;;10.55;4.70;;;;;;;;;;5067287;28;20032;-61
2021/09/25 03:19:57;;;;;;;6.00;4.30;;;;;;;;;;5067442;28;20025;-61
2021/09/25 03:22:22;;;;;;;6.82;4.18;;;;;;;;;;5067541;28;20035;-60
2021/09/25 03:24:47;;;;;;;5.43;4.35;;;;;;;;;;5067324;28;20167;-60
2021/09/25 03:27:13;;;;;;;6.45;4.60;;;;;;;;;;5049181;28;20036;-61
2021/09/25 03:29:38;;;;;;;5.97;4.40;;;;;;;;;;5067665;28;20043;-60
2021/09/25 03:32:04;;;;;;;7.47;4.13;;;;;;;;;;5067037;28;20480;-60
2021/09/25 03:34:30;;;;;;;5.82;4.40;;;;;;;;;;5067274;28;20024;-61
2021/09/25 03:36:55;;;;;;;9.02;4.78;;;;;;;;;;5048710;28;20047;-60
2021/09/25 03:39:21;;;;;;;7.50;4.40;;;;;;;;;;5067066;28;20547;-60
2021/09/25 03:41:46;;;;;;;5.55;4.20;;;;;;;;;;5066794;28;20020;-61
2021/09/25 03:44:12;;;;;;;8.32;4.50;;;;;;;;;;5067020;28;20027;-60
2021/09/25 03:46:37;;;;;;;6.68;4.05;;;;;;;;;;5066773;28;20029;-61
2021/09/25 03:49:03;;;;;;;8.25;4.38;;;;;;;;;;5066937;28;20033;-61
2021/09/25 03:51:28;;;;;;;6.30;4.15;;;;;;;;;;5066192;28;20029;-60
2021/09/25 03:53:54;;;;;;;4.22;3.63;;;;;;;;;;5067080;28;20044;-61
2021/09/25 03:56:19;;;;;;;5.68;4.15;;;;;;;;;;5066688;28;20450;-60
2021/09/25 03:58:46;;;;;;;4.95;4.28;;;;;;;;;;5066946;28;20053;-61
2021/09/25 04:01:12;;;;;;;4.40;3.50;;;;;;;;;;5067023;28;20115;-60
2021/09/25 04:03:38;;;;;;;5.00;4.05;;;;;;;;;;5067292;28;20045;-60
2021/09/25 04:06:04;;;;;;;6.35;4.55;;;;;;;;;;5067121;28;20765;-61
2021/09/25 04:08:29;;;;;;;5.70;4.47;;;;;;;;;;5048505;28;20036;-60
2021/09/25 04:10:55;;;;;;;4.93;4.05;;;;;;;;;;5048401;28;20040;-60
2021/09/25 04:13:21;;;;;;;5.57;4.05;;;;;;;;;;5066797;28;20025;-61
2021/09/25 04:15:46;;;;;;;5.65;4.15;;;;;;;;;;5066914;28;20040;-61
2021/09/25 04:18:12;;;;;;;6.95;4.70;;;;;;;;;;5066734;28;20028;-60
2021/09/25 04:20:38;;;;;;;8.63;4.40;;;;;;;;;;5066852;28;20040;-60
2021/09/25 04:23:03;;;;;;;4.55;3.83;;;;;;;;;;5066713;28;20430;-61
2021/09/25 04:25:31;;;;;;;5.55;4.00;;;;;;;;;;5066582;28;20028;-61
2021/09/25 04:28:04;;;;;;;5.65;3.65;;;;;;;;;;5066489;28;20137;-61
2021/09/25 04:30:30;;;;;;;6.38;3.67;;;;;;;;;;5066755;28;20064;-59
2021/09/25 04:32:56;;;;;;;5.43;4.30;;;;;;;;;;5048378;28;20067;-61
2021/09/25 04:35:21;;;;;;;6.35;3.85;;;;;;;;;;5066446;28;20563;-61
2021/09/25 04:37:47;;;;;;;4.00;3.63;;;;;;;;;;5066442;28;20488;-60
2021/09/25 04:40:12;;;;;;;5.47;3.50;;;;;;;;;;5066422;28;20044;-59
2021/09/25 04:42:38;;;;;;;4.65;3.45;;;;;;;;;;5066454;28;20048;-60
2021/09/25 04:45:04;;;;;;;5.07;3.40;;;;;;;;;;5066407;28;20025;-61
2021/09/25 04:47:29;;;;;;;3.95;3.55;;;;;;;;;;5066362;28;20416;-60
2021/09/25 04:49:55;;;;;;;4.15;3.45;;;;;;;;;;5066607;28;20135;-61
2021/09/25 04:52:20;;;;;;;4.25;3.63;;;;;;;;;;5066611;28;20024;-60
2021/09/25 04:54:46;;;;;;;4.07;3.63;;;;;;;;;;5066559;28;20043;-60
2021/09/25 04:57:11;;;;;;;7.68;3.83;;;;;;;;;;5071769;28;20048;-60
2021/09/25 04:59:37;;;;;;;4.10;3.70;;;;;;;;;;5086882;28;20038;-61
2021/09/25 05:02:03;;;;;;;3.80;3.15;;;;;;;;;;5086787;28;20119;-60
2021/09/25 05:04:28;;;;;;;6.00;3.70;;;;;;;;;;5089740;28;20028;-59
2021/09/25 05:06:55;;;;;;;3.88;3.58;;;;;;;;;;5090554;28;20020;-61
2021/09/25 05:09:22;;;;;;;6.22;3.65;;;;;;;;;;5090153;28;20069;-60
2021/09/25 05:11:48;;;;;;;4.18;3.33;;;;;;;;;;5090275;28;20028;-61
2021/09/25 05:14:13;;;;;;;5.80;3.58;;;;;;;;;;5090330;28;20032;-60
2021/09/25 05:16:39;;;;;;;4.47;3.40;;;;;;;;;;5071716;28;20085;-60
2021/09/25 05:19:04;;;;;;;7.07;3.67;;;;;;;;;;5090129;28;20020;-60
2021/09/25 05:21:30;;;;;;;4.90;3.58;;;;;;;;;;5089777;28;20028;-60
2021/09/25 05:23:56;;;;;;;4.00;3.58;;;;;;;;;;5089736;28;20063;-60
2021/09/25 05:26:21;;;;;;;6.85;3.80;;;;;;;;;;5091463;28;20035;-61
2021/09/25 05:28:47;;;;;;;4.97;4.05;;;;;;;;;;5077719;28;20493;-61
2021/09/25 05:31:13;;;;;;;4.38;3.90;;;;;;;;;;5095710;28;20020;-61
2021/09/25 05:33:39;;;;;;;5.00;3.90;;;;;;;;;;5095851;28;20031;-61
2021/09/25 05:36:05;;;;;;;6.65;3.90;;;;;;;;;;5095651;28;20031;-61
2021/09/25 05:38:30;;;;;;;5.30;3.60;;;;;;;;;;5095633;28;20028;-61
2021/09/25 05:40:56;;;;;;;5.72;3.35;;;;;;;;;;5095625;28;20023;-61
2021/09/25 05:43:21;;;;;;;4.70;3.40;;;;;;;;;;5095532;28;20028;-61
2021/09/25 05:45:47;;;;;;;4.85;3.45;;;;;;;;;;5094306;28;20475;-61
2021/09/25 05:48:12;;;;;;;4.05;3.28;;;;;;;;;;5094004;28;20119;-61
2021/09/25 05:50:38;;;;;;;4.88;3.33;;;;;;;;;;5093795;28;20440;-61
2021/09/25 05:53:03;;;;;;;3.75;3.25;;;;;;;;;;5093404;28;20043;-61
2021/09/25 05:55:29;;;;;;;5.50;3.35;;;;;;;;;;5093403;28;20038;-60
2021/09/25 05:57:59;;;;;;;5.05;3.22;;;;;;;;;;5093248;28;20043;-60
2021/09/25 06:00:24;;;;;;;4.95;3.70;;;;;;;;;;5093905;28;20024;-60
2021/09/25 06:02:50;;;;;;;4.65;3.50;;;;;;;;;;5094562;28;20108;-62
2021/09/25 06:05:16;;;;;;;6.85;3.53;;;;;;;;;;5094563;28;20024;-60
2021/09/25 06:07:41;;;;;;;6.10;3.58;;;;;;;;;;5094750;28;20073;-60
2021/09/25 06:10:07;;;;;;;4.50;3.35;;;;;;;;;;5094779;28;20487;-59
2021/09/25 06:12:33;;;;;;;5.38;3.55;;;;;;;;;;5094801;28;20063;-59
2021/09/25 06:14:59;;;;;;;3.95;3.35;;;;;;;;;;5076436;28;20062;-59
2021/09/25 06:17:24;;;;;;;4.15;3.28;;;;;;;;;;5094937;28;20044;-60
2021/09/25 06:19:50;;;;;;;6.25;3.40;;;;;;;;;;5094425;28;20510;-60
2021/09/25 06:22:15;;;;;;;5.75;3.35;;;;;;;;;;5076276;28;20016;-60
2021/09/25 06:24:41;;;;;;;5.30;3.58;;;;;;;;;;5094032;28;20047;-60
2021/09/25 06:27:06;;;;;;;7.25;3.63;;;;;;;;;;5076146;28;20012;-59
2021/09/25 06:29:32;;;;;;;6.05;3.35;;;;;;;;;;5094614;28;20032;-60
2021/09/25 06:31:57;;;;;;;3.67;3.15;;;;;;;;;;5093943;28;20027;-60
2021/09/25 06:34:23;;;;;;;5.38;3.30;;;;;;;;;;5094016;28;20036;-59
2021/09/25 06:36:49;;;;;;;4.60;3.50;;;;;;;;;;5094302;28;20113;-60
2021/09/25 06:39:16;;;;;;;3.63;3.33;;;;;;;;;;5094447;28;20024;-60
2021/09/25 06:41:42;;;;;;;5.30;3.28;;;;;;;;;;5094209;28;20023;-60
2021/09/25 06:44:07;;;;;;;5.78;3.45;;;;;;;;;;5068505;28;20028;-60
2021/09/25 06:46:34;;;;;;;5.28;3.60;;;;;;;;;;5090191;28;20754;-60
2021/09/25 06:48:59;;;;;;;5.80;3.30;;;;;;;;;;5090896;28;20109;-59
2021/09/25 06:51:26;;;;;;;3.47;3.20;;;;;;;;;;5090924;28;20067;-59
2021/09/25 06:53:52;;;;;;;4.30;3.35;;;;;;;;;;5090534;28;20042;-60
2021/09/25 06:56:18;;;;;;;3.28;2.95;;;;;;;;;;5090367;28;20102;-60
2021/09/25 06:58:43;;;;;;;3.65;3.30;;;;;;;;;;5090353;28;20467;-59
2021/09/25 07:01:09;;;;;;;4.07;3.53;;;;;;;;;;5090629;28;20038;-60
2021/09/25 07:03:34;;;;;;;3.33;3.03;;;;;;;;;;5090708;28;20086;-60
2021/09/25 07:06:00;;;;;;;6.07;3.33;;;;;;;;;;5090926;28;20020;-60
2021/09/25 07:08:25;;;;;;;3.40;3.10;;;;;;;;;;5090035;28;20024;-59
2021/09/25 07:10:51;;;;;;;5.25;3.85;;;;;;;;;;5089688;28;20422;-60
2021/09/25 07:13:17;;;;;;;4.68;3.40;;;;;;;;;;5090239;28;20036;-60
2021/09/25 07:15:43;;;;;;;3.42;3.13;;;;;;;;;;5090400;28;20051;-60
2021/09/25 07:18:09;;;;;;;5.35;3.47;;;;;;;;;;5090418;28;20155;-60
2021/09/25 07:20:34;;;;;;;5.57;3.85;;;;;;;;;;5090406;28;20024;-60
2021/09/25 07:23:00;;;;;;;4.68;2.92;;;;;;;;;;5090307;28;20039;-60
2021/09/25 07:25:28;;;;;;;5.95;3.53;;;;;;;;;;5090123;28;20456;-60
2021/09/25 07:27:53;;;;;;;6.45;3.67;;;;;;;;;;5072112;28;20391;-59
2021/09/25 07:30:19;;;;;;;4.20;3.65;;;;;;;;;;5090517;28;20023;-60
2021/09/25 07:32:44;;;;;;;4.32;3.45;;;;;;;;;;5089924;28;20060;-60
2021/09/25 07:35:11;;;;;;;6.65;4.05;;;;;;;;;;5090191;28;20016;-60
2021/09/25 07:37:37;;;;;;;3.97;3.55;;;;;;;;;;5090113;28;20387;-60
2021/09/25 07:40:04;;;;;;;4.93;3.50;;;;;;;;;;5071534;28;20038;-59
2021/09/25 07:42:29;;;;;;;4.88;3.97;;;;;;;;;;5090241;28;20039;-60
2021/09/25 07:44:55;;;;;;;4.82;3.85;;;;;;;;;;5090110;28;20024;-60
2021/09/25 07:47:21;;;;;;;5.22;4.10;;;;;;;;;;5090006;28;20028;-60
2021/09/25 07:49:46;;;;;;;4.35;3.95;;;;;;;;;;5089965;28;20487;-60
2021/09/25 07:52:12;;;;;;;4.15;3.75;;;;;;;;;;5089783;28;20028;-60
2021/09/25 07:54:37;;;;;;;5.07;4.55;;;;;;;;;;5089864;28;20337;-60
2021/09/25 07:57:03;;;;;;;6.10;4.47;;;;;;;;;;5084401;28;20043;-60
2021/09/25 07:59:29;;;;;;;5.68;3.97;;;;;;;;;;5051914;28;20064;-59
2021/09/25 08:01:54;;;;;;;5.53;4.88;;;;;;;;;;5069408;28;20021;-60
2021/09/25 08:04:20;;;;;;;7.70;4.47;;;;;;;;;;5069416;28;20032;-61
2021/09/25 08:06:45;;;;;;;4.30;3.45;;;;;;;;;;5069521;28;20028;-60
2021/09/25 08:09:11;;;;;;;5.35;4.80;;;;;;;;;;5069529;28;20036;-61
2021/09/25 08:11:36;;;;;;;5.13;4.63;;;;;;;;;;5069766;28;20107;-61
2021/09/25 08:14:02;;;;;;;9.30;5.35;;;;;;;;;;5069632;28;20135;-61
2021/09/25 08:16:28;;;;;;;6.05;4.85;;;;;;;;;;5069532;28;20039;-60
2021/09/25 08:18:56;;;;;;;4.65;4.10;;;;;;;;;;5069643;28;20045;-60
2021/09/25 08:21:21;;;;;;;5.82;5.00;;;;;;;;;;5070005;28;20032;-61
2021/09/25 08:23:47;;;;;;;6.45;5.13;;;;;;;;;;5069294;28;20029;-60
2021/09/25 08:26:12;;;;;;;4.40;3.85;;;;;;;;;;5069576;28;20030;-60
2021/09/25 08:28:38;;;;;;;7.18;4.88;;;;;;;;;;5069641;28;20035;-60
2021/09/25 08:31:04;;;;;;;8.05;5.22;;;;;;;;;;5069446;28;20435;-60
2021/09/25 08:33:29;;;;;;;6.80;5.38;;;;;;;;;;5068893;28;20025;-61
2021/09/25 08:35:55;;;;;;;6.82;5.13;;;;;;;;;;5069158;28;20689;-60
2021/09/25 08:38:21;;;;;;;7.15;5.18;;;;;;;;;;5072588;28;20037;-61
2021/09/25 08:40:46;;;;;;;5.78;4.78;;;;;;;;;;5073199;28;20036;-60
2021/09/25 08:43:12;;;;;;;6.53;5.13;;;;;;;;;;5072069;28;20024;-60
2021/09/25 08:45:37;;;;;;;5.50;4.38;;;;;;;;;;5072805;28;20465;-60
2021/09/25 08:48:03;;;;;;;7.60;5.75;;;;;;;;;;5072431;28;20036;-60
2021/09/25 08:50:29;;;;;;;7.82;5.38;;;;;;;;;;5072898;28;20028;-60
2021/09/25 08:52:54;;;;;;;5.75;5.15;;;;;;;;;;5072264;28;20036;-61
2021/09/25 08:55:20;;;;;;;6.38;5.38;;;;;;;;;;5054606;28;20037;-63
2021/09/25 08:57:46;;;;;;;7.68;5.30;;;;;;;;;;5082595;28;20043;-60
2021/09/25 09:00:25;;;;;;;4.95;3.75;;;;;;;;;;5092323;28;20028;-60
2021/09/25 09:02:51;;;;;;;8.80;5.85;;;;;;;;;;5093077;28;20117;-59
2021/09/25 09:05:25;;;;;;;7.97;5.45;;;;;;;;;;5092960;28;20459;-59
2021/09/25 09:07:51;;;;;;;6.25;5.63;;;;;;;;;;5092834;28;20127;-59
2021/09/25 09:10:16;;;;;;;6.25;5.22;;;;;;;;;;5092717;28;20110;-59
2021/09/25 09:12:43;;;;;;;6.50;4.88;;;;;;;;;;5091691;28;20039;-58
2021/09/25 09:15:09;;;;;;;7.72;6.13;;;;;;;;;;5073849;28;20027;-56
2021/09/25 09:17:34;;;;;;;7.85;5.68;;;;;;;;;;5092939;28;20024;-58
2021/09/25 09:20:09;;;;;;;8.85;5.45;;;;;;;;;;5092975;28;20016;-59
2021/09/25 09:22:35;;;;;;;8.23;5.90;;;;;;;;;;5092754;28;20028;-59
2021/09/25 09:25:04;;;;;;;6.68;5.68;;;;;;;;;;5093051;28;20024;-58
2021/09/25 09:27:30;;;;;;;5.50;4.53;;;;;;;;;;5093015;28;20464;-58
2021/09/25 09:30:09;;;;;;;5.35;4.78;;;;;;;;;;5093065;28;20023;-59
2021/09/25 09:32:45;;;;;;;5.68;5.10;;;;;;;;;;5092917;28;20036;-59
2021/09/25 09:35:16;;;;;;;8.15;4.50;;;;;;;;;;5092365;28;20040;-59
2021/09/25 09:37:44;;;;;;;5.43;2.40;;;;;;;;;;5092628;28;20098;-59
2021/09/25 09:40:10;;;;;;;7.90;5.75;;;;;;;;;;5092598;28;20020;-59
2021/09/25 09:42:41;;;;;;;8.30;5.50;;;;;;;;;;5074197;28;20030;-59
2021/09/25 09:45:07;;;;;;;5.63;5.00;;;;;;;;;;5092522;28;20085;-59
2021/09/25 09:47:41;;;;;;;7.95;5.80;;;;;;;;;;5092596;28;20032;-59
2021/09/25 09:50:07;;;;;;;6.93;5.53;;;;;;;;;;5091923;28;20407;-59
2021/09/25 09:52:33;;;;;;;7.55;5.80;;;;;;;;;;5092226;28;20052;-59
2021/09/25 09:54:58;;;;;;;7.43;5.40;;;;;;;;;;5092748;28;20067;-61
2021/09/25 09:57:24;;;;;;;7.05;5.75;;;;;;;;;;5091476;28;20044;-59
2021/09/25 09:59:50;;;;;;;7.85;5.43;;;;;;;;;;5092363;28;20135;-59
2021/09/25 10:02:16;;;;;;;7.55;5.70;;;;;;;;;;5091933;28;20035;-60
2021/09/25 10:04:41;;;;;;;5.20;4.70;;;;;;;;;;5091908;28;20062;-59
2021/09/25 10:07:07;;;;;;;9.95;5.75;;;;;;;;;;5092205;28;20459;-60
2021/09/25 10:09:34;;;;;;;5.25;4.75;;;;;;;;;;5092233;28;20085;-60
2021/09/25 10:12:01;;;;;;;5.13;4.60;;;;;;;;;;5091748;28;20016;-60
2021/09/25 10:14:31;;;;;;;6.22;5.57;;;;;;;;;;5091767;28;20024;-60
2021/09/25 10:16:59;;;;;;;8.80;6.17;;;;;;;;;;5091834;28;20048;-60
2021/09/25 10:19:27;;;;;;;6.68;5.47;;;;;;;;;;5091574;28;20271;-60
2021/09/25 10:21:56;;;;;;;9.15;5.35;;;;;;;;;;5091720;28;20121;-60
2021/09/25 10:24:24;;;;;;;7.97;5.50;;;;;;;;;;5091318;28;20031;-59
2021/09/25 10:26:49;;;;;;;6.75;5.63;;;;;;;;;;5091672;28;20125;-60
2021/09/25 10:29:19;;;;;;;7.18;5.18;;;;;;;;;;5091444;28;20060;-59
2021/09/25 10:31:44;;;;;;;7.60;6.60;;;;;;;;;;5091517;28;20036;-59
2021/09/25 10:34:14;;;;;;;6.97;4.70;;;;;;;;;;5091379;28;20555;-59
2021/09/25 10:36:40;;;;;;;7.00;6.10;;;;;;;;;;5091490;28;20074;-60
2021/09/25 10:39:17;;;;;;;7.47;5.57;;;;;;;;;;5091596;28;20028;-59
2021/09/25 10:41:44;;;;;;;9.77;7.03;;;;;;;;;;5091409;28;20113;-60
2021/09/25 10:44:29;;;;;;;9.55;7.00;;;;;;;;;;5091143;28;20027;-60
2021/09/25 10:47:10;;;;;;;10.95;7.35;;;;;;;;;;5090885;28;20032;-60
2021/09/25 10:49:43;;;;;;;12.80;6.70;;;;;;;;;;5090745;28;20035;-60
2021/09/25 10:52:09;;;;;;;10.18;6.43;;;;;;;;;;5090929;28;20035;-60
2021/09/25 10:54:34;;;;;;;9.68;6.72;;;;;;;;;;5090870;28;20012;-60
2021/09/25 10:57:00;;;;;;;10.05;6.55;;;;;;;;;;5090714;28;20069;-60
2021/09/25 10:59:25;;;;;;;12.00;7.28;;;;;;;;;;5091311;28;20034;-60
2021/09/25 11:01:54;;;;;;;10.07;6.57;;;;;;;;;;5089825;28;20051;-60
2021/09/25 11:04:21;;;;;;;10.27;7.03;;;;;;;;;;5072492;28;20077;-60
2021/09/25 11:06:55;;;;;;;8.13;4.90;;;;;;;;;;5090820;28;20028;-60
2021/09/25 11:09:30;;;;;;;13.73;7.50;;;;;;;;;;5090877;28;20077;-60
2021/09/25 11:11:57;;;;;;;11.13;6.72;;;;;;;;;;5090488;28;20031;-60
2021/09/25 11:14:22;;;;;;;12.13;7.05;;;;;;;;;;5090317;28;20546;-60
2021/09/25 11:16:50;;;;;;;10.95;7.57;;;;;;;;;;5090363;28;20097;-60
2021/09/25 11:19:21;;;;;;;10.07;7.70;;;;;;;;;;5090240;28;20454;-59
2021/09/25 11:21:50;;;;;;;7.90;6.47;;;;;;;;;;5090756;28;20447;-59
2021/09/25 11:24:16;;;;;;;12.98;7.00;;;;;;;;;;5071740;28;20430;-60
2021/09/25 11:26:41;;;;;;;9.70;6.80;;;;;;;;;;5090201;28;20480;-59
2021/09/25 11:29:07;;;;;;;10.05;6.53;;;;;;;;;;5090387;28;20038;-60
2021/09/25 11:31:33;;;;;;;7.53;5.43;;;;;;;;;;5090114;28;20082;-60
2021/09/25 11:33:58;;;;;;;9.85;5.50;;;;;;;;;;5071836;28;20059;-60
2021/09/25 11:36:26;;;;;;;9.27;6.88;;;;;;;;;;5071684;28;20441;-60
2021/09/25 11:38:52;;;;;;;9.20;6.15;;;;;;;;;;5089997;28;20081;-60
2021/09/25 11:41:17;;;;;;;8.73;6.80;;;;;;;;;;5071971;28;20035;-60
2021/09/25 11:43:54;;;;;;;7.82;6.22;;;;;;;;;;5071658;28;20020;-60
2021/09/25 11:46:19;;;;;;;6.13;4.53;;;;;;;;;;5090127;28;20371;-60
2021/09/25 11:48:45;;;;;;;6.85;5.47;;;;;;;;;;5090050;28;20028;-60
2021/09/25 11:51:10;;;;;;;8.50;5.82;;;;;;;;;;5090186;28;20031;-60
2021/09/25 11:53:36;;;;;;;8.82;6.68;;;;;;;;;;5089787;28;20750;-60
2021/09/25 11:56:02;;;;;;;6.85;6.15;;;;;;;;;;5089802;28;20044;-59
2021/09/25 11:58:28;;;;;;;7.88;5.60;;;;;;;;;;5090029;28;20609;-59
2021/09/25 12:00:54;;;;;;;7.80;5.63;;;;;;;;;;5089829;28;20029;-60
2021/09/25 12:03:22;;;;;;;7.13;5.50;;;;;;;;;;5089994;28;20453;-60
2021/09/25 12:05:48;;;;;;;7.53;5.57;;;;;;;;;;5090021;28;20028;-60
2021/09/25 12:08:19;;;;;;;6.63;5.97;;;;;;;;;;5089745;28;20081;-60
2021/09/25 12:10:44;;;;;;;6.55;5.70;;;;;;;;;;5090053;28;20031;-60
2021/09/25 12:13:11;;;;;;;6.20;5.50;;;;;;;;;;5092875;28;20425;-60
2021/09/25 12:15:38;;;;;;;5.28;4.78;;;;;;;;;;5094122;28;20139;-60
2021/09/25 12:18:07;;;;;;;4.85;4.30;;;;;;;;;;5094091;28;20043;-59
2021/09/25 12:20:32;;;;;;;5.38;4.85;;;;;;;;;;5094205;28;20024;-60
2021/09/25 12:23:01;;;;;;;5.40;3.58;;;;;;;;;;5093918;28;20024;-60
2021/09/25 12:25:27;;;;;;;5.70;4.60;;;;;;;;;;5093925;28;20024;-59
2021/09/25 12:27:52;;;;;;;4.70;4.28;;;;;;;;;;5093994;28;20031;-60
2021/09/25 12:30:18;;;;;;;4.53;4.13;;;;;;;;;;5093834;28;20526;-59
2021/09/25 12:32:58;;;;;;;4.90;4.50;;;;;;;;;;5075308;28;20024;-60
2021/09/25 12:35:23;;;;;;;4.50;4.10;;;;;;;;;;5093777;28;20040;-60
2021/09/25 12:37:49;;;;;;;4.90;4.40;;;;;;;;;;5093737;28;20020;-60
2021/09/25 12:40:16;;;;;;;5.90;4.22;;;;;;;;;;5093572;28;20604;-59
2021/09/25 12:42:41;;;;;;;4.70;4.40;;;;;;;;;;5093703;28;20119;-60
2021/09/25 12:45:09;;;;;;;4.47;4.10;;;;;;;;;;5075149;28;20583;-60
2021/09/25 12:47:35;;;;;;;4.93;4.45;;;;;;;;;;5093473;28;20573;-59
2021/09/25 12:50:34;;;;;;;4.72;4.40;;;;;;;;;;5093244;28;20032;-59
2021/09/25 12:52:59;;;;;;;4.78;4.32;;;;;;;;;;5037518;28;20068;-59
2021/09/25 12:55:26;;;;;;;5.28;4.03;;;;;;;;;;5093547;28;20059;-59
2021/09/25 12:58:03;;;;;;;4.95;4.32;;;;;;;;;;5092929;28;20048;-60
2021/09/25 13:00:29;;;;;;;5.38;4.57;;;;;;;;;;5093324;28;20032;-60
2021/09/25 13:02:58;;;;;;;4.55;4.20;;;;;;;;;;5093176;28;20107;-60
2021/09/25 13:05:25;;;;;;;5.80;4.70;;;;;;;;;;5093161;28;20032;-60
2021/09/25 13:07:51;;;;;;;5.05;4.65;;;;;;;;;;5092891;28;20095;-59
2021/09/25 13:10:17;;;;;;;5.40;5.00;;;;;;;;;;5092763;28;20044;-60
2021/09/25 13:12:43;;;;;;;5.55;5.05;;;;;;;;;;5092861;28;20483;-60
2021/09/25 13:15:13;;;;;;;5.57;5.05;;;;;;;;;;5092915;28;20028;-59
2021/09/25 13:17:40;;;;;;;5.47;4.97;;;;;;;;;;5092972;28;20032;-60
2021/09/25 13:20:06;;;;;;;5.25;4.78;;;;;;;;;;5092987;28;20353;-60
2021/09/25 13:22:33;;;;;;;7.63;5.53;;;;;;;;;;5093066;28;20028;-59
2021/09/25 13:24:59;;;;;;;5.40;4.90;;;;;;;;;;5091892;28;20633;-59
2021/09/25 13:27:26;;;;;;;4.90;4.47;;;;;;;;;;5092956;28;20093;-56
2021/09/25 13:29:52;;;;;;;5.03;4.63;;;;;;;;;;5092897;28;20103;-57
2021/09/25 13:32:19;;;;;;;5.32;4.80;;;;;;;;;;5092331;28;20028;-56
2021/09/25 13:34:45;;;;;;;5.03;4.53;;;;;;;;;;5092298;28;20115;-56
2021/09/25 13:37:11;;;;;;;5.22;4.20;;;;;;;;;;5091446;28;20028;-56
2021/09/25 13:39:37;;;;;;;4.47;4.00;;;;;;;;;;5091751;28;20069;-58
2021/09/25 13:42:04;;;;;;;4.82;4.28;;;;;;;;;;5073323;28;20070;-58
2021/09/25 13:44:29;;;;;;;3.42;3.15;;;;;;;;;;5092014;28;20055;-58
2021/09/25 13:46:55;;;;;;;4.78;4.32;;;;;;;;;;5092000;28;20417;-58
2021/09/25 13:49:20;;;;;;;4.40;2.33;;;;;;;;;;5092106;28;20020;-58
2021/09/25 13:51:46;;;;;;;2.60;2.33;;;;;;;;;;5092175;28;20122;-58
2021/09/25 13:54:12;;;;;;;5.03;3.47;;;;;;;;;;5092011;28;20500;-58
2021/09/25 13:56:37;;;;;;;4.05;2.72;;;;;;;;;;5091883;28;20415;-58
2021/09/25 13:59:03;;;;;;;3.58;2.60;;;;;;;;;;5092092;28;20044;-58
2021/09/25 14:01:28;;;;;;;6.57;4.50;;;;;;;;;;5091893;28;20044;-58
2021/09/25 14:03:54;;;;;;;8.35;4.55;;;;;;;;;;5091752;28;20374;-58
2021/09/25 14:06:20;;;;;;;7.05;4.32;;;;;;;;;;5091948;28;20032;-58
2021/09/25 14:08:46;;;;;;;7.93;6.28;;;;;;;;;;5091691;28;20028;-59
2021/09/25 14:11:12;;;;;;;14.00;9.70;;;;;;;;;;5091938;28;20059;-58
2021/09/25 14:13:38;;;;;;;15.70;9.80;;;;;;;;;;5091634;28;20113;-59
2021/09/25 14:16:08;;;;;;;10.38;6.65;;;;;;;;;;5091199;28;20055;-58
2021/09/25 14:18:33;;;;;;;10.23;7.38;;;;;;;;;;5091111;28;20036;-60
2021/09/25 14:20:59;;;;;;;7.90;7.10;;;;;;;;;;5091517;28;20039;-60
2021/09/25 14:23:24;;;;;;;9.48;5.97;;;;;;;;;;5091315;28;20059;-60
2021/09/25 14:25:50;;;;;;;10.43;5.43;;;;;;;;;;5091358;28;20032;-60
2021/09/25 14:28:16;;;;;;;6.95;5.03;;;;;;;;;;5091297;28;20034;-60
2021/09/25 14:30:42;;;;;;;8.18;4.38;;;;;;;;;;5089381;28;20099;-61
2021/09/25 14:33:07;;;;;;;7.38;4.40;;;;;;;;;;5089634;28;20024;-61
2021/09/25 14:35:33;;;;;;;7.20;3.95;;;;;;;;;;5088923;28;20081;-61